Latest Coastal Weather Observations for Devonport Airport

IDV60701

Issued at 8:02 am EST Friday 30 September 2016 (issued every 10 minutes, with the page automatically refreshed every 10 minutes)

About coastal observations | Map of coastal stations | Coastal observations for VIC | Marine services | Other Formats
Station Details ID: 091126 Name: DEVONPORT AIRPORT Lat: -41.17 Lon: 146.43 Height: 8.0 m
Data from the previous 72 hours. | See also: Recent months at Devonport Airport
Date/Time
EST
Temp
°C
Wind Pressure Rain since
9am
mm
Weather Cloud Vis
km
Sea
Height
m
Swell
Dir  Spd
kts
Gust
kts
hPa Trend Height
m
Period
s
Dir
30/08:00am 7.9 S 2 3 990.9 - 39.8 - Mostly clear 10 - - - -
30/07:30am 7.5 SSW 4 5 991.0 - 39.8 - - 10 - - - -
30/07:00am 7.3 SSW 6 7 991.3 - 39.8 - - 10 - - - -
30/06:30am 7.0 SSE 4 4 991.2 - 39.8 - - 10 - - - -
30/06:00am 6.7 S 6 8 990.8 - 39.8 Recent precip. Cloudy 10 - - - -
30/05:30am 6.8 S 7 8 990.9 - 39.6 - - 10 - - - -
30/05:00am 7.0 SSW 6 6 990.6 - 39.6 - - 10 - - - -
30/04:30am 6.7 S 7 8 990.7 - 39.6 - - 10 - - - -
30/04:00am 6.7 S 6 7 991.0 - 39.6 - - 10 - - - -
30/03:30am 6.8 SSW 3 5 991.2 - 39.6 - - 10 - - - -
30/03:00am 6.7 SSW 3 4 991.5 - 39.6 - Cloudy 10 - - - -
30/02:30am 6.5 S 6 7 991.7 - 39.6 - - 10 - - - -
30/02:00am 6.7 S 4 5 991.7 - 39.6 - - 10 - - - -
30/01:30am 7.2 S 6 8 992.1 - 39.6 - - 10 - - - -
30/01:00am 7.6 SSE 7 8 992.7 - 39.6 - - 10 - - - -
30/12:30am 7.9 SSE 7 9 992.5 - 39.6 - - 10 - - - -
30/12:00am 8.2 S 7 8 992.5 - 39.6 - Cloudy 10 - - - -
 
Date/Time
EST
Temp
°C
Wind Pressure Rain since
9am
mm
Weather Cloud Vis
km
Sea
Height
m
Swell
Dir  Spd
kts
Gust
kts
hPa Trend Height
m
Period
s
Dir
29/11:30pm 8.5 SSE 6 7 992.7 - 39.6 - - 10 - - - -
29/11:00pm 9.2 ESE 7 8 992.6 - 39.6 - - 10 - - - -
29/10:30pm 9.3 ESE 7 8 992.5 - 39.6 - - 10 - - - -
29/10:07pm 9.3 SE 6 8 992.4 - 39.6 - Partly cloudy 10 - - - -
29/10:00pm 9.3 SSE 6 6 992.4 - 39.6 - Partly cloudy 10 - - - -
29/09:46pm 9.4 SSE 5 6 992.5 - 39.6 - Partly cloudy 10 - - - -
29/09:30pm 9.5 SE 4 5 992.3 - 39.6 - Partly cloudy 10 - - - -
29/09:21pm 9.6 ESE 3 4 992.3 - 39.6 - Partly cloudy 10 - - - -
29/09:00pm 9.7 ESE 3 4 992.5 - 39.6 - Cloudy 10 - - - -
29/08:48pm 9.6 ESE 4 4 992.6 - 39.6 - Partly cloudy 10 - - - -
29/08:30pm 9.4 E 4 5 992.6 - 39.6 - Partly cloudy 10 - - - -
29/08:00pm 9.6 SE 5 5 992.1 - 39.6 - - 10 - - - -
29/07:30pm 10.2 SW 7 9 990.7 - 39.6 - Partly cloudy 10 - - - -
29/07:00pm 10.4 SW 6 7 991.3 - 39.4 - Partly cloudy 10 - - - -
29/06:30pm 10.8 WNW 13 18 990.7 - 38.2 - Partly cloudy 10 - - - -
29/06:06pm 10.7 WNW 18 23 990.0 - 37.4 - Partly cloudy 8 - - - -
29/06:00pm 10.8 WNW 18 23 989.9 - 37.0 Rain Cloudy 7 - - - -
29/05:38pm 11.1 WNW 16 20 989.5 - 36.0 - Partly cloudy 8 - - - -
29/05:30pm 11.2 WNW 14 18 989.3 - 35.4 - Partly cloudy 8 - - - -
29/05:28pm 10.9 WNW 15 20 989.2 - 35.4 - Partly cloudy 8 - - - -
29/05:15pm 10.9 NW 12 17 988.9 - 34.8 - Partly cloudy 8 - - - -
29/05:00pm 11.7 NE 11 13 988.7 - 34.2 - Partly cloudy 6 - - - -
29/04:30pm 12.2 NE 10 14 988.1 - 32.2 - Partly cloudy 5 - - - -
29/04:20pm 12.6 NE 7 9 988.2 - 31.8 - Partly cloudy 6 - - - -
29/04:18pm 12.5 NE 6 9 988.2 - 31.8 - Partly cloudy 6 - - - -
29/04:07pm 12.3 ENE 6 8 988.2 - 31.4 - Partly cloudy 10 - - - -
29/04:02pm 12.3 E 6 8 988.3 - 31.4 - Partly cloudy 9 - - - -
29/04:00pm 12.4 E 6 8 988.3 - 31.2 - Partly cloudy 9 - - - -
29/03:30pm 12.5 NE 18 23 988.5 - 29.6 - Partly cloudy 5 - - - -
29/03:28pm 12.7 NE 18 23 988.5 - 29.6 - Partly cloudy 5 - - - -
29/03:15pm 12.6 NE 16 26 988.4 - 29.0 - Partly cloudy 5 - - - -
29/03:04pm 12.5 NE 28 38 988.3 - 27.4 - Partly cloudy 2 - - - -
29/03:00pm 12.5 ENE 29 38 988.2 - 25.8 Rain Cloudy 2 - - - -
29/02:59pm 12.4 ENE 28 38 988.1 - 25.6 - Partly cloudy 2 - - - -
29/02:52pm 12.6 E 22 33 988.4 - 22.4 - Partly cloudy 5 - - - -
29/02:51pm 12.7 E 21 29 988.4 - 22.0 - Partly cloudy 6 - - - -
29/02:44pm 12.8 ENE 20 30 988.6 - 20.6 - Partly cloudy 8 - - - -
29/02:30pm 13.0 ENE 14 27 989.0 - 19.4 - Partly cloudy 5 - - - -
29/02:00pm 12.9 ENE 16 20 989.3 - 13.4 - Partly cloudy 5 - - - -
29/01:30pm 13.2 ENE 23 30 989.9 - 10.0 - Partly cloudy 5 - - - -
29/01:00pm 13.0 ENE 19 28 990.3 - 8.0 - Partly cloudy 6 - - - -
29/12:58pm 13.0 ENE 19 28 990.4 - 8.0 - Partly cloudy 7 - - - -
29/12:30pm 13.3 ENE 13 16 991.1 - 6.4 - Partly cloudy 5 - - - -
29/12:00pm 13.7 NE 16 20 991.6 - 5.2 Drizzle Cloudy 6 - - - -
29/11:34am 13.4 NE 12 16 991.8 - 4.8 - Partly cloudy 5 - - - -
29/11:30am 13.6 NE 12 16 991.8 - 4.6 - Partly cloudy 4 - - - -
29/11:27am 13.8 NE 13 16 991.9 - 4.6 - Partly cloudy 4 - - - -
29/11:10am 14.0 NE 15 19 992.3 - 3.6 - Partly cloudy 5 - - - -
29/11:00am 13.9 NE 15 18 992.3 - 3.4 - Partly cloudy 5 - - - -
29/10:32am 14.1 NE 19 24 992.5 - 2.8 - Partly cloudy 7 - - - -
29/10:30am 14.2 ENE 19 24 992.5 - 2.8 - Partly cloudy 7 - - - -
29/10:02am 14.1 ENE 22 27 992.8 - 2.4 - Partly cloudy 6 - - - -
29/10:00am 14.1 ENE 22 27 992.9 - 2.4 - Partly cloudy 6 - - - -
29/09:30am 14.2 ENE 21 31 993.1 - 1.2 - Partly cloudy 7 - - - -
29/09:28am 14.2 ENE 21 31 993.1 - 1.2 - Partly cloudy 7 - - - -
29/09:00am 14.1 ENE 21 29 993.6 - 1.2 Rain Cloudy 6 - - - -
29/08:57am 14.1 ENE 22 32 993.6 - 1.0 - Partly cloudy 6 - - - -
29/08:48am 14.1 ENE 22 29 993.8 - 0.8 - Partly cloudy 6 - - - -
29/08:30am 14.6 ENE 23 32 993.9 - 0.0 - Partly cloudy 10 - - - -
29/08:01am 15.0 ENE 22 33 994.1 - 0.0 - Partly cloudy 10 - - - -
29/08:00am 14.9 ENE 22 29 994.2 - 0.0 - Partly cloudy 10 - - - -
29/07:34am 14.8 ENE 20 30 994.5 - 0.0 - Partly cloudy 10 - - - -
29/07:30am 14.8 ENE 21 29 994.6 - 0.0 - Partly cloudy 10 - - - -
29/07:01am 14.6 ENE 20 30 994.9 - 0.0 - Partly cloudy 10 - - - -
29/07:00am 14.5 ENE 20 28 994.9 - 0.0 - Partly cloudy 10 - - - -
29/06:30am 14.3 ENE 21 30 995.2 - 0.0 - Partly cloudy 10 - - - -
29/06:00am 14.1 E 21 27 995.2 - 0.0 - Cloudy 10 - - - -
29/05:30am 14.0 E 18 28 995.7 - 0.0 - Partly cloudy 10 - - - -
29/05:00am 13.9 E 19 26 996.1 - 0.0 - Partly cloudy 10 - - - -
29/04:30am 13.8 E 19 27 996.7 - 0.0 - Partly cloudy 10 - - - -
29/04:00am 13.7 E 22 33 996.9 - 0.0 - Partly cloudy 10 - - - -
29/03:37am 13.7 E 19 31 997.7 - 0.0 - Partly cloudy 10 - - - -
29/03:30am 13.5 E 19 26 997.9 - 0.0 - Partly cloudy 10 - - - -
29/03:00am 13.2 E 16 25 998.6 - 0.0 - Cloudy 10 - - - -
29/02:53am 13.2 E 15 25 998.8 - 0.0 - Partly cloudy 10 - - - -
29/02:30am 12.8 ESE 14 20 999.1 - 0.0 - Partly cloudy 10 - - - -
29/02:00am 12.6 ESE 14 19 999.9 - 0.0 - Partly cloudy 10 - - - -
29/01:30am 12.5 ESE 13 19 1000.9 - 0.0 - Cloudy 10 - - - -
29/01:00am 11.8 ESE 10 15 1002.1 - 0.0 - Partly cloudy 10 - - - -
29/12:30am 10.5 SE 9 13 1002.6 - 0.0 - Partly cloudy 10 - - - -
29/12:00am 10.3 SSE 9 11 1003.1 - 0.0 - Cloudy 10 - - - -
 
Date/Time
EST
Temp
°C
Wind Pressure Rain since
9am
mm
Weather Cloud Vis
km
Sea
Height
m
Swell
Dir  Spd
kts
Gust
kts
hPa Trend Height
m
Period
s
Dir
28/11:30pm 10.0 SSE 10 13 1003.3 - 0.0 - - 10 - - - -
28/11:00pm 10.0 SSE 9 11 1003.9 - 0.0 - - 10 - - - -
28/10:30pm 9.9 SSE 9 11 1004.3 - 0.0 - - 10 - - - -
28/10:00pm 9.8 SSE 10 12 1004.6 - 0.0 - - 10 - - - -
28/09:30pm 10.3 SE 8 10 1004.9 - 0.0 - - 10 - - - -
28/09:00pm 11.0 ESE 8 11 1005.3 - 0.0 - Cloudy 10 - - - -
28/08:30pm 11.1 ESE 8 9 1005.7 - 0.0 - Partly cloudy 10 - - - -
28/08:00pm 11.0 ESE 7 8 1006.1 - 0.0 - Partly cloudy 10 - - - -
28/07:30pm 10.7 E 6 7 1006.2 - 0.0 - Partly cloudy 10 - - - -
28/07:00pm 11.9 NE 9 12 1006.2 - 0.0 - Partly cloudy 10 - - - -
28/06:47pm 11.4 ENE 6 10 1006.2 - 0.0 - Partly cloudy 10 - - - -
28/06:30pm 11.8 NE 8 9 1006.0 - 0.0 - Partly cloudy 10 - - - -
28/06:08pm 11.6 ENE 7 9 1005.8 - 0.0 - Partly cloudy 10 - - - -
28/06:00pm 11.8 NE 7 9 1005.7 - 0.0 - Mostly clear 10 - - - -
28/05:36pm 12.1 NNE 6 7 1005.8 - 0.0 - Partly cloudy 10 - - - -
28/05:30pm 12.2 NNE 6 8 1005.7 - 0.0 - Partly cloudy 10 - - - -
28/05:17pm 12.4 NE 7 9 1005.6 - 0.0 - Partly cloudy 10 - - - -
28/05:00pm 12.7 NNE 6 7 1005.8 - 0.0 - Partly cloudy 10 - - - -
28/04:30pm 13.0 NNE 9 11 1006.3 - 0.0 - - 10 - - - -
28/04:00pm 12.9 N 8 11 1005.9 - 0.0 - - 10 - - - -
28/03:30pm 12.9 NNE 6 9 1005.6 - 0.0 - - 10 - - - -
28/03:00pm 13.3 N 7 8 1006.3 - 0.0 - - 10 - - - -
28/02:30pm 13.5 NNW 7 11 1007.1 - 0.0 - - 10 - - - -
28/02:00pm 13.3 N 8 11 1007.8 - 0.0 - - 10 - - - -
28/01:30pm 13.5 N 9 11 1008.2 - 0.0 - - 10 - - - -
28/01:00pm 13.1 NNW 8 11 1008.5 - 0.0 - - 10 - - - -
28/12:30pm 13.8 N 9 11 1008.9 - 0.0 - - 10 - - - -
28/12:00pm 13.7 N 7 9 1009.3 - 0.0 - - 10 - - - -
28/11:30am 13.5 NNW 6 8 1009.6 - 0.0 - - 10 - - - -
28/11:00am 12.9 NNW 7 8 1010.0 - 0.0 - Partly cloudy 10 - - - -
28/10:30am 13.4 N 6 8 1010.2 - 0.0 - - 10 - - - -
28/10:00am 13.4 N 5 7 1010.3 - 0.0 - Cloudy 10 - - - -
28/09:30am 12.3 N 4 6 1010.6 - 0.0 - Cloudy 10 - - - -
28/09:00am 12.8 N 1 4 1010.7 - 0.0 - Cloudy 10 - - - -
28/08:30am 11.7 S 3 4 1010.9 - 0.0 - Partly cloudy 10 - - - -
28/08:00am 10.6 W 2 4 1011.1 - 0.0 - Partly cloudy 10 - - - -
28/07:30am 9.6 SSW 3 4 1011.1 - 0.0 - Partly cloudy 10 - - - -
28/07:00am 8.0 S 5 6 1011.0 - 0.0 - Partly cloudy 10 - - - -
28/06:30am 7.3 S 1 4 1010.7 - 0.0 - - 10 - - - -
28/06:00am 7.5 CALM 0 0 1010.4 - 0.0 - Cloudy 10 - - - -
28/05:30am 7.2 SSW 1 4 1010.2 - 0.0 - Partly cloudy 10 - - - -
28/05:00am 8.0 WSW 3 3 1009.9 - 0.0 - - 10 - - - -
28/04:30am 9.2 W 3 5 1009.9 - 0.0 - - 10 - - - -
28/04:00am 10.3 W 9 12 1009.7 - 0.0 - Partly cloudy 10 - - - -
28/03:30am 10.9 WNW 11 13 1009.6 - 0.0 - Partly cloudy 10 - - - -
28/03:00am 10.8 WNW 10 11 1009.4 - 0.0 - Partly cloudy 10 - - - -
28/02:34am 10.8 NW 7 9 1009.4 - 0.0 - Partly cloudy 10 - - - -
28/02:30am 10.8 NW 7 9 1009.4 - 0.0 - Partly cloudy 10 - - - -
28/02:17am 10.9 NW 7 9 1009.6 - 0.0 - Partly cloudy 10 - - - -
28/02:00am 10.7 NW 6 8 1009.7 - 0.0 - Partly cloudy 10 - - - -
28/01:30am 10.8 WNW 6 8 1010.0 - 0.0 - Partly cloudy 10 - - - -
28/01:00am 10.0 SSW 2 4 1010.3 - 0.0 - Partly cloudy 10 - - - -
28/12:30am 9.8 WSW 3 4 1010.3 - 0.0 - Partly cloudy 10 - - - -
28/12:00am 9.4 WSW 4 6 1010.2 - 0.0 - Cloudy 10 - - - -
 
Date/Time
EST
Temp
°C
Wind Pressure Rain since
9am
mm
Weather Cloud Vis
km
Sea
Height
m
Swell
Dir  Spd
kts
Gust
kts
hPa Trend Height
m
Period
s
Dir
27/11:30pm 8.9 WSW 6 7 1010.3 - 0.0 - Partly cloudy 10 - - - -
27/11:00pm 9.3 SW 5 6 1010.0 - 0.0 - - 10 - - - -
27/10:30pm 9.8 W 11 15 1010.1 - 0.0 - - 10 - - - -
27/10:00pm 9.6 WSW 4 5 1009.8 - 0.0 - - 10 - - - -
27/09:30pm 9.6 W 7 8 1009.7 - 0.0 - - 10 - - - -
27/09:00pm 10.6 WSW 5 7 1009.7 - 0.0 - - 10 - - - -
27/08:30pm 10.7 W 7 9 1009.6 - 0.0 - - 10 - - - -
27/08:00pm 12.1 WNW 11 13 1009.4 - 0.0 - - 10 - - - -
27/07:30pm 12.4 WNW 13 15 1009.3 - 0.0 - - 10 - - - -
27/07:00pm 12.3 WNW 11 13 1009.2 - 0.0 - - 10 - - - -
27/06:30pm 12.2 NW 13 16 1008.9 - 0.0 - - 10 - - - -
27/06:00pm 12.4 NW 14 18 1008.9 - 0.0 - - 10 - - - -
27/05:30pm 12.6 NW 14 17 1008.8 - 0.0 - - 10 - - - -
27/05:00pm 12.8 NW 13 16 1008.7 - 0.0 - - 10 - - - -
27/04:30pm 13.3 NW 13 17 1008.7 - 0.0 - Partly cloudy 10 - - - -
27/04:00pm 13.7 NW 12 15 1008.6 - 0.0 - - 10 - - - -
27/03:30pm 13.8 NW 13 16 1008.5 - 0.0 - - 10 - - - -
27/03:00pm 13.9 NNW 13 16 1008.4 - 0.0 - - 10 - - - -
27/02:30pm 14.0 NNW 12 15 1008.4 - 0.0 - - 10 - - - -
27/02:00pm 13.8 NNW 11 13 1008.6 - 0.0 - - 10 - - - -
27/01:30pm 13.4 N 10 13 1008.7 - 0.0 - - 10 - - - -
27/01:00pm 13.9 N 11 13 1008.7 - 0.0 - - 10 - - - -
27/12:30pm 13.6 N 10 11 1008.7 - 0.0 - - 10 - - - -
27/12:00pm 13.3 N 9 11 1008.9 - 0.0 - - 10 - - - -
27/11:30am 13.0 N 9 11 1009.0 - 0.0 - - 10 - - - -
27/11:00am 12.9 N 9 11 1009.2 - 0.0 - - 10 - - - -
27/10:30am 12.6 N 8 9 1009.3 - 0.0 - - 10 - - - -
27/10:00am 12.6 NNW 7 8 1009.3 - 0.0 - Partly cloudy 10 - - - -
27/09:30am 12.7 N 5 9 1009.3 - 0.0 - Partly cloudy 10 - - - -
27/09:00am 12.2 S 3 6 1009.2 - 0.0 - - 10 - - - -
27/08:30am 11.5 SSE 6 7 1008.9 - 0.0 - - 10 - - - -

Other Formats:

Comma delimited format used in spreadsheet applications
http://www.bom.gov.au/fwo/IDV60701/IDV60701.95960.axf

JavaScript Object Notation format (JSON) in row-major order
http://www.bom.gov.au/fwo/IDV60701/IDV60701.95960.json